Airfield :







YOU CAN JOIN US ON...

 
LOGIN :

Register | Disclaimer

   EN    FR    IT 

 









Legend :    VFR   Marginal VFR   IFR   Intensive IFR   Very Intensive IFR
Visi :
Ceiling :
>= 8 km
>= 3000ft
5 to 8 km
1000 to 3000 ft
1500m to 5 km
500 to 1000 ft
800 to 1500m
200 to 500 ft
< 800m
< 200 ft
Symbols :   Thunderstorms  Fog  Heavy snow  Heavy precipitations  Wind > 20 kt







- Airport Elevation : 118 ft
- IATA code : YUL


CYUL - Montréal - Pierre-Elliott-Trudeau Int.

CURRENT METAR :
  • 260700Z 21007KT 15SM OVC008 15/14 A2975 RMK ST8 SLP075 DENSITY ALT 400FT

EXPIRED METARs :
  • 260650Z 22006KT 15SM OVC008 15/14 A2975 RMK ST8 SLP076 DENSITY ALT 400FT
  • 260600Z 18006KT 15SM OVC013 15/14 A2976 RMK SC8 SLP078 DENSITY ALT 400FT
  • 260542Z 19003KT 15SM OVC014 16/15 A2976 RMK SC8 SLP079 DENSITY ALT 400FT
  • 260500Z 17005KT 15SM OVC020 15/15 A2976 RMK SC8 SLP081 DENSITY ALT 400FT

TAF TAF CYUL
Valid from the 26 at 06:00 until the 27 at 06:00 UTC


260538Z 2606/2706 17005KT P6SM OVC020
TEMPO 2606/2609 3SM BR BKN007 OVC015
PROB30 2606/2609 2SM BR OVC004
FM260900 23010KT 3SM -DZ BR OVC007
TEMPO 2609/2611 P6SM NSW OVC015
FM261100 23012G22KT P6SM SCT008 BKN020
TEMPO 2611/2613 5SM BR BKN008 OVC020
FM261300 25015G25KT P6SM SCT020 BKN040
FM261900 27015G25KT P6SM SCT050
BECMG 2622/2624 30012KT
BECMG 2704/2706 34010KT RMK NXT FCST BY 260900Z
ATIS : ENG : +1 514-633-3037 FRA : +1 514-633-3034
CZUL FIR / North America



MET'MAP, your aeronautical weather chart ! - Copyright ORBIFLY December 2007 - Disclaimer

ORBIFLY MET'MAP TEAM :

Programming & Development : Alexandra Zaïnal
Concept & Development : Baudouin d'Aumeries
Co-Development & Prog : Marc-Olivier Méhu
Technical & hardware support : Manuel Goepfert

Contact : metmap@orbifly.com




SOURCES & CREDITS :

   NOAA